sensor_id;sensor_type;location;lat;lon;timestamp;P1;durP1;ratioP1;P2;durP2;ratioP2
68989;SDS011;56046;47.270;11.368;2023-07-24T00:01:49;13.67;;;6.83;;
68989;SDS011;56046;47.270;11.368;2023-07-24T00:04:14;13.57;;;6.00;;
68989;SDS011;56046;47.270;11.368;2023-07-24T00:06:39;15.20;;;6.53;;
68989;SDS011;56046;47.270;11.368;2023-07-24T00:09:04;12.07;;;6.27;;
68989;SDS011;56046;47.270;11.368;2023-07-24T00:11:30;13.43;;;6.90;;
68989;SDS011;56046;47.270;11.368;2023-07-24T00:13:55;11.53;;;6.67;;
68989;SDS011;56046;47.270;11.368;2023-07-24T00:16:20;13.50;;;7.03;;
68989;SDS011;56046;47.270;11.368;2023-07-24T00:18:46;13.27;;;6.10;;
68989;SDS011;56046;47.270;11.368;2023-07-24T00:21:12;13.57;;;6.70;;
68989;SDS011;56046;47.270;11.368;2023-07-24T00:23:38;12.75;;;6.75;;
68989;SDS011;56046;47.270;11.368;2023-07-24T00:26:03;12.63;;;7.13;;
68989;SDS011;56046;47.270;11.368;2023-07-24T00:28:29;13.57;;;6.93;;
68989;SDS011;56046;47.270;11.368;2023-07-24T00:30:54;12.37;;;6.70;;
68989;SDS011;56046;47.270;11.368;2023-07-24T00:33:21;11.95;;;6.20;;
68989;SDS011;56046;47.270;11.368;2023-07-24T00:35:46;13.17;;;6.83;;
68989;SDS011;56046;47.270;11.368;2023-07-24T00:38:11;14.20;;;6.70;;
68989;SDS011;56046;47.270;11.368;2023-07-24T00:40:36;13.33;;;6.60;;
68989;SDS011;56046;47.270;11.368;2023-07-24T00:43:02;13.27;;;6.73;;
68989;SDS011;56046;47.270;11.368;2023-07-24T00:45:27;15.47;;;6.90;;
68989;SDS011;56046;47.270;11.368;2023-07-24T00:47:52;14.87;;;6.63;;
68989;SDS011;56046;47.270;11.368;2023-07-24T00:50:18;19.10;;;7.97;;
68989;SDS011;56046;47.270;11.368;2023-07-24T00:52:44;13.45;;;7.47;;
68989;SDS011;56046;47.270;11.368;2023-07-24T00:55:09;12.87;;;6.50;;
68989;SDS011;56046;47.270;11.368;2023-07-24T00:57:36;12.35;;;6.80;;
68989;SDS011;56046;47.270;11.368;2023-07-24T01:00:01;14.70;;;6.67;;
68989;SDS011;56046;47.270;11.368;2023-07-24T01:02:28;16.25;;;7.57;;
68989;SDS011;56046;47.270;11.368;2023-07-24T01:04:54;13.03;;;6.73;;
68989;SDS011;56046;47.270;11.368;2023-07-24T01:07:20;13.43;;;6.73;;
68989;SDS011;56046;47.270;11.368;2023-07-24T01:09:45;13.90;;;7.22;;
68989;SDS011;56046;47.270;11.368;2023-07-24T01:15:08;14.38;;;7.50;;
68989;SDS011;56046;47.270;11.368;2023-07-24T01:17:34;16.20;;;7.17;;
68989;SDS011;56046;47.270;11.368;2023-07-24T01:20:03;14.02;;;7.15;;
68989;SDS011;56046;47.270;11.368;2023-07-24T01:25:01;12.70;;;7.10;;
68989;SDS011;56046;47.270;11.368;2023-07-24T01:27:29;13.47;;;7.10;;
68989;SDS011;56046;47.270;11.368;2023-07-24T01:29:54;12.70;;;7.00;;
68989;SDS011;56046;47.270;11.368;2023-07-24T01:32:19;14.97;;;6.70;;
68989;SDS011;56046;47.270;11.368;2023-07-24T01:34:45;13.43;;;7.22;;
68989;SDS011;56046;47.270;11.368;2023-07-24T01:37:11;11.90;;;6.30;;
68989;SDS011;56046;47.270;11.368;2023-07-24T01:39:37;13.57;;;6.70;;
68989;SDS011;56046;47.270;11.368;2023-07-24T01:42:02;13.10;;;7.07;;
68989;SDS011;56046;47.270;11.368;2023-07-24T01:44:28;14.33;;;6.87;;
68989;SDS011;56046;47.270;11.368;2023-07-24T01:46:53;12.53;;;6.87;;
68989;SDS011;56046;47.270;11.368;2023-07-24T01:49:18;13.37;;;7.73;;
68989;SDS011;56046;47.270;11.368;2023-07-24T01:51:44;13.75;;;7.32;;
68989;SDS011;56046;47.270;11.368;2023-07-24T01:54:10;15.10;;;7.00;;
68989;SDS011;56046;47.270;11.368;2023-07-24T01:56:35;13.63;;;6.67;;
68989;SDS011;56046;47.270;11.368;2023-07-24T01:59:01;14.00;;;7.40;;
68989;SDS011;56046;47.270;11.368;2023-07-24T02:01:26;16.77;;;7.63;;
68989;SDS011;56046;47.270;11.368;2023-07-24T02:03:51;15.40;;;8.03;;
68989;SDS011;56046;47.270;11.368;2023-07-24T02:06:16;14.30;;;7.07;;
68989;SDS011;56046;47.270;11.368;2023-07-24T02:08:42;13.53;;;7.47;;
68989;SDS011;56046;47.270;11.368;2023-07-24T02:11:13;15.23;;;7.13;;
68989;SDS011;56046;47.270;11.368;2023-07-24T02:13:38;13.73;;;7.27;;
68989;SDS011;56046;47.270;11.368;2023-07-24T02:16:04;15.33;;;7.37;;
68989;SDS011;56046;47.270;11.368;2023-07-24T02:18:29;13.30;;;7.27;;
68989;SDS011;56046;47.270;11.368;2023-07-24T02:20:54;13.97;;;7.40;;
68989;SDS011;56046;47.270;11.368;2023-07-24T02:23:19;14.97;;;8.00;;
68989;SDS011;56046;47.270;11.368;2023-07-24T02:25:45;14.67;;;7.33;;
68989;SDS011;56046;47.270;11.368;2023-07-24T02:28:10;14.40;;;7.27;;
68989;SDS011;56046;47.270;11.368;2023-07-24T02:30:39;14.00;;;7.53;;
68989;SDS011;56046;47.270;11.368;2023-07-24T02:33:04;14.00;;;7.47;;
68989;SDS011;56046;47.270;11.368;2023-07-24T02:35:29;13.03;;;7.17;;
68989;SDS011;56046;47.270;11.368;2023-07-24T02:37:54;14.20;;;7.40;;
68989;SDS011;56046;47.270;11.368;2023-07-24T02:40:20;13.50;;;7.97;;
68989;SDS011;56046;47.270;11.368;2023-07-24T02:42:45;15.93;;;7.80;;
68989;SDS011;56046;47.270;11.368;2023-07-24T02:45:10;15.13;;;8.17;;
68989;SDS011;56046;47.270;11.368;2023-07-24T02:47:36;15.43;;;7.13;;
68989;SDS011;56046;47.270;11.368;2023-07-24T02:50:01;13.73;;;7.70;;
68989;SDS011;56046;47.270;11.368;2023-07-24T02:52:26;14.27;;;7.33;;
68989;SDS011;56046;47.270;11.368;2023-07-24T02:54:51;12.93;;;7.30;;
68989;SDS011;56046;47.270;11.368;2023-07-24T02:57:17;14.20;;;7.57;;
68989;SDS011;56046;47.270;11.368;2023-07-24T02:59:42;14.03;;;7.13;;
68989;SDS011;56046;47.270;11.368;2023-07-24T03:02:07;13.33;;;7.70;;
68989;SDS011;56046;47.270;11.368;2023-07-24T03:04:32;16.10;;;8.20;;
68989;SDS011;56046;47.270;11.368;2023-07-24T03:06:58;14.67;;;7.43;;
68989;SDS011;56046;47.270;11.368;2023-07-24T03:09:23;13.83;;;7.10;;
68989;SDS011;56046;47.270;11.368;2023-07-24T03:11:48;15.60;;;7.43;;
68989;SDS011;56046;47.270;11.368;2023-07-24T03:14:13;14.07;;;7.83;;
68989;SDS011;56046;47.270;11.368;2023-07-24T03:16:39;14.00;;;8.00;;
68989;SDS011;56046;47.270;11.368;2023-07-24T03:19:04;13.43;;;6.93;;
68989;SDS011;56046;47.270;11.368;2023-07-24T03:21:29;15.30;;;7.83;;
68989;SDS011;56046;47.270;11.368;2023-07-24T03:23:54;13.23;;;7.13;;
68989;SDS011;56046;47.270;11.368;2023-07-24T03:26:19;14.23;;;7.27;;
68989;SDS011;56046;47.270;11.368;2023-07-24T03:28:45;12.37;;;7.13;;
68989;SDS011;56046;47.270;11.368;2023-07-24T03:31:10;13.07;;;7.23;;
68989;SDS011;56046;47.270;11.368;2023-07-24T03:33:35;14.87;;;7.10;;
68989;SDS011;56046;47.270;11.368;2023-07-24T03:36:00;12.77;;;6.80;;
68989;SDS011;56046;47.270;11.368;2023-07-24T03:38:26;15.90;;;7.47;;
68989;SDS011;56046;47.270;11.368;2023-07-24T03:40:51;15.90;;;7.90;;
68989;SDS011;56046;47.270;11.368;2023-07-24T03:43:16;14.07;;;7.03;;
68989;SDS011;56046;47.270;11.368;2023-07-24T03:45:41;13.57;;;7.10;;
68989;SDS011;56046;47.270;11.368;2023-07-24T03:48:07;13.02;;;7.68;;
68989;SDS011;56046;47.270;11.368;2023-07-24T03:50:32;14.03;;;8.50;;
68989;SDS011;56046;47.270;11.368;2023-07-24T03:52:57;16.13;;;8.30;;
68989;SDS011;56046;47.270;11.368;2023-07-24T03:55:23;15.77;;;8.07;;
68989;SDS011;56046;47.270;11.368;2023-07-24T03:57:48;15.93;;;7.90;;
68989;SDS011;56046;47.270;11.368;2023-07-24T04:00:13;14.23;;;7.40;;
68989;SDS011;56046;47.270;11.368;2023-07-24T04:02:38;13.90;;;7.50;;
68989;SDS011;56046;47.270;11.368;2023-07-24T04:05:04;15.55;;;7.78;;
68989;SDS011;56046;47.270;11.368;2023-07-24T04:07:30;14.27;;;7.93;;
68989;SDS011;56046;47.270;11.368;2023-07-24T04:09:55;14.13;;;8.10;;
68989;SDS011;56046;47.270;11.368;2023-07-24T04:12:20;13.35;;;7.90;;
68989;SDS011;56046;47.270;11.368;2023-07-24T04:14:46;14.43;;;8.00;;
68989;SDS011;56046;47.270;11.368;2023-07-24T04:17:11;13.80;;;7.23;;
68989;SDS011;56046;47.270;11.368;2023-07-24T04:19:36;16.57;;;7.70;;
68989;SDS011;56046;47.270;11.368;2023-07-24T04:22:01;14.07;;;7.57;;
68989;SDS011;56046;47.270;11.368;2023-07-24T04:24:27;14.80;;;8.10;;
68989;SDS011;56046;47.270;11.368;2023-07-24T04:26:52;14.60;;;7.63;;
68989;SDS011;56046;47.270;11.368;2023-07-24T04:29:17;15.07;;;7.30;;
68989;SDS011;56046;47.270;11.368;2023-07-24T04:31:42;16.57;;;7.90;;
68989;SDS011;56046;47.270;11.368;2023-07-24T04:34:07;14.87;;;7.77;;
68989;SDS011;56046;47.270;11.368;2023-07-24T04:36:33;13.90;;;7.80;;
68989;SDS011;56046;47.270;11.368;2023-07-24T04:38:58;16.13;;;7.60;;
68989;SDS011;56046;47.270;11.368;2023-07-24T04:41:23;13.63;;;7.13;;
68989;SDS011;56046;47.270;11.368;2023-07-24T04:43:48;14.17;;;7.20;;
68989;SDS011;56046;47.270;11.368;2023-07-24T04:46:14;14.07;;;7.70;;
68989;SDS011;56046;47.270;11.368;2023-07-24T04:48:39;14.60;;;7.60;;
68989;SDS011;56046;47.270;11.368;2023-07-24T04:51:04;14.57;;;7.87;;
68989;SDS011;56046;47.270;11.368;2023-07-24T04:53:29;14.33;;;7.47;;
68989;SDS011;56046;47.270;11.368;2023-07-24T04:55:55;15.63;;;7.47;;
68989;SDS011;56046;47.270;11.368;2023-07-24T04:58:20;16.57;;;7.70;;
68989;SDS011;56046;47.270;11.368;2023-07-24T05:00:45;13.77;;;7.37;;
68989;SDS011;56046;47.270;11.368;2023-07-24T05:03:11;15.63;;;7.77;;
68989;SDS011;56046;47.270;11.368;2023-07-24T05:05:39;14.10;;;8.03;;
68989;SDS011;56046;47.270;11.368;2023-07-24T05:08:04;15.00;;;7.72;;
68989;SDS011;56046;47.270;11.368;2023-07-24T05:10:34;14.55;;;7.32;;
68989;SDS011;56046;47.270;11.368;2023-07-24T05:12:59;14.35;;;7.30;;
68989;SDS011;56046;47.270;11.368;2023-07-24T05:15:26;15.03;;;7.13;;
68989;SDS011;56046;47.270;11.368;2023-07-24T05:17:51;13.60;;;7.20;;
68989;SDS011;56046;47.270;11.368;2023-07-24T05:20:16;14.70;;;7.63;;
68989;SDS011;56046;47.270;11.368;2023-07-24T05:22:41;14.33;;;7.57;;
68989;SDS011;56046;47.270;11.368;2023-07-24T05:25:07;16.50;;;8.20;;
68989;SDS011;56046;47.270;11.368;2023-07-24T05:27:32;13.47;;;7.10;;
68989;SDS011;56046;47.270;11.368;2023-07-24T05:29:57;14.67;;;7.47;;
68989;SDS011;56046;47.270;11.368;2023-07-24T05:32:22;13.83;;;7.90;;
68989;SDS011;56046;47.270;11.368;2023-07-24T05:34:48;17.10;;;7.93;;
68989;SDS011;56046;47.270;11.368;2023-07-24T05:37:13;16.73;;;7.17;;
68989;SDS011;56046;47.270;11.368;2023-07-24T05:39:38;16.33;;;7.53;;
68989;SDS011;56046;47.270;11.368;2023-07-24T05:42:03;15.40;;;7.23;;
68989;SDS011;56046;47.270;11.368;2023-07-24T05:44:29;14.38;;;7.15;;
68989;SDS011;56046;47.270;11.368;2023-07-24T05:46:54;13.87;;;7.13;;
68989;SDS011;56046;47.270;11.368;2023-07-24T05:49:19;16.40;;;7.70;;
68989;SDS011;56046;47.270;11.368;2023-07-24T05:51:44;14.83;;;8.47;;
68989;SDS011;56046;47.270;11.368;2023-07-24T05:54:10;17.07;;;8.20;;
68989;SDS011;56046;47.270;11.368;2023-07-24T05:56:35;14.63;;;7.43;;
68989;SDS011;56046;47.270;11.368;2023-07-24T05:59:00;12.63;;;6.60;;
68989;SDS011;56046;47.270;11.368;2023-07-24T06:01:25;14.97;;;7.83;;
68989;SDS011;56046;47.270;11.368;2023-07-24T06:03:51;17.10;;;7.93;;
68989;SDS011;56046;47.270;11.368;2023-07-24T06:06:16;17.70;;;8.30;;
68989;SDS011;56046;47.270;11.368;2023-07-24T06:08:41;18.83;;;7.83;;
68989;SDS011;56046;47.270;11.368;2023-07-24T06:11:06;14.67;;;7.67;;
68989;SDS011;56046;47.270;11.368;2023-07-24T06:13:32;13.53;;;7.47;;
68989;SDS011;56046;47.270;11.368;2023-07-24T06:15:57;14.30;;;7.63;;
68989;SDS011;56046;47.270;11.368;2023-07-24T06:18:22;15.83;;;8.00;;
68989;SDS011;56046;47.270;11.368;2023-07-24T06:20:51;16.43;;;7.70;;
68989;SDS011;56046;47.270;11.368;2023-07-24T06:23:17;14.32;;;7.63;;
68989;SDS011;56046;47.270;11.368;2023-07-24T06:25:42;14.97;;;7.77;;
68989;SDS011;56046;47.270;11.368;2023-07-24T06:28:07;15.60;;;8.00;;
68989;SDS011;56046;47.270;11.368;2023-07-24T06:30:32;13.97;;;7.73;;
68989;SDS011;56046;47.270;11.368;2023-07-24T06:32:58;14.50;;;8.00;;
68989;SDS011;56046;47.270;11.368;2023-07-24T06:35:23;14.20;;;7.47;;
68989;SDS011;56046;47.270;11.368;2023-07-24T06:37:48;13.97;;;8.07;;
68989;SDS011;56046;47.270;11.368;2023-07-24T06:40:13;13.10;;;7.37;;
68989;SDS011;56046;47.270;11.368;2023-07-24T06:42:39;15.43;;;8.07;;
68989;SDS011;56046;47.270;11.368;2023-07-24T06:45:04;14.43;;;7.30;;
68989;SDS011;56046;47.270;11.368;2023-07-24T06:47:30;14.20;;;7.73;;
68989;SDS011;56046;47.270;11.368;2023-07-24T06:49:55;16.23;;;8.30;;
68989;SDS011;56046;47.270;11.368;2023-07-24T06:52:20;16.83;;;8.20;;
68989;SDS011;56046;47.270;11.368;2023-07-24T06:54:45;14.43;;;7.93;;
68989;SDS011;56046;47.270;11.368;2023-07-24T06:57:11;15.07;;;7.60;;
68989;SDS011;56046;47.270;11.368;2023-07-24T06:59:36;14.23;;;8.50;;
68989;SDS011;56046;47.270;11.368;2023-07-24T07:02:01;14.20;;;8.00;;
68989;SDS011;56046;47.270;11.368;2023-07-24T07:04:26;13.67;;;7.57;;
68989;SDS011;56046;47.270;11.368;2023-07-24T07:06:51;16.07;;;8.43;;
68989;SDS011;56046;47.270;11.368;2023-07-24T07:09:17;14.60;;;8.50;;
68989;SDS011;56046;47.270;11.368;2023-07-24T07:11:42;15.40;;;8.53;;
68989;SDS011;56046;47.270;11.368;2023-07-24T07:14:10;15.27;;;7.70;;
68989;SDS011;56046;47.270;11.368;2023-07-24T07:16:35;15.10;;;8.77;;
68989;SDS011;56046;47.270;11.368;2023-07-24T07:19:00;16.03;;;8.83;;
68989;SDS011;56046;47.270;11.368;2023-07-24T07:21:26;13.90;;;7.60;;
68989;SDS011;56046;47.270;11.368;2023-07-24T07:23:51;14.27;;;7.50;;
68989;SDS011;56046;47.270;11.368;2023-07-24T07:26:16;15.77;;;8.20;;
68989;SDS011;56046;47.270;11.368;2023-07-24T07:28:42;16.93;;;8.20;;
68989;SDS011;56046;47.270;11.368;2023-07-24T07:31:07;17.50;;;8.45;;
68989;SDS011;56046;47.270;11.368;2023-07-24T07:33:33;17.67;;;8.73;;
68989;SDS011;56046;47.270;11.368;2023-07-24T07:35:58;16.33;;;8.70;;
68989;SDS011;56046;47.270;11.368;2023-07-24T07:38:23;18.67;;;9.47;;
68989;SDS011;56046;47.270;11.368;2023-07-24T07:40:49;20.58;;;9.45;;
68989;SDS011;56046;47.270;11.368;2023-07-24T07:43:14;17.67;;;9.10;;
68989;SDS011;56046;47.270;11.368;2023-07-24T07:45:39;19.23;;;9.80;;
68989;SDS011;56046;47.270;11.368;2023-07-24T07:48:05;21.33;;;10.53;;
68989;SDS011;56046;47.270;11.368;2023-07-24T07:50:30;22.73;;;10.43;;
68989;SDS011;56046;47.270;11.368;2023-07-24T07:52:55;22.40;;;11.37;;
68989;SDS011;56046;47.270;11.368;2023-07-24T07:55:20;19.63;;;10.70;;
68989;SDS011;56046;47.270;11.368;2023-07-24T07:57:46;21.17;;;10.10;;
68989;SDS011;56046;47.270;11.368;2023-07-24T08:00:11;22.67;;;11.73;;
68989;SDS011;56046;47.270;11.368;2023-07-24T08:02:37;19.92;;;11.00;;
68989;SDS011;56046;47.270;11.368;2023-07-24T08:05:08;21.60;;;10.23;;
68989;SDS011;56046;47.270;11.368;2023-07-24T08:07:33;18.95;;;9.75;;
68989;SDS011;56046;47.270;11.368;2023-07-24T08:09:59;20.47;;;10.13;;
68989;SDS011;56046;47.270;11.368;2023-07-24T08:12:24;16.73;;;9.07;;
68989;SDS011;56046;47.270;11.368;2023-07-24T08:14:49;19.48;;;9.93;;
68989;SDS011;56046;47.270;11.368;2023-07-24T08:17:14;18.30;;;9.40;;
68989;SDS011;56046;47.270;11.368;2023-07-24T08:19:40;16.47;;;9.07;;
68989;SDS011;56046;47.270;11.368;2023-07-24T08:22:05;16.07;;;9.10;;
68989;SDS011;56046;47.270;11.368;2023-07-24T08:24:33;15.90;;;8.97;;
68989;SDS011;56046;47.270;11.368;2023-07-24T08:26:58;18.38;;;8.95;;
68989;SDS011;56046;47.270;11.368;2023-07-24T08:29:23;16.37;;;9.13;;
68989;SDS011;56046;47.270;11.368;2023-07-24T08:31:49;16.37;;;9.07;;
68989;SDS011;56046;47.270;11.368;2023-07-24T08:34:14;17.80;;;9.47;;
68989;SDS011;56046;47.270;11.368;2023-07-24T08:36:39;17.17;;;9.80;;
68989;SDS011;56046;47.270;11.368;2023-07-24T08:39:04;16.50;;;9.10;;
68989;SDS011;56046;47.270;11.368;2023-07-24T08:41:30;18.50;;;9.67;;
68989;SDS011;56046;47.270;11.368;2023-07-24T08:43:57;15.77;;;9.32;;
68989;SDS011;56046;47.270;11.368;2023-07-24T08:46:22;16.57;;;9.67;;
68989;SDS011;56046;47.270;11.368;2023-07-24T08:48:48;15.98;;;9.65;;
68989;SDS011;56046;47.270;11.368;2023-07-24T08:51:14;17.97;;;10.03;;
68989;SDS011;56046;47.270;11.368;2023-07-24T08:53:41;17.15;;;10.30;;
68989;SDS011;56046;47.270;11.368;2023-07-24T08:56:08;18.02;;;9.95;;
68989;SDS011;56046;47.270;11.368;2023-07-24T08:58:34;17.33;;;10.17;;
68989;SDS011;56046;47.270;11.368;2023-07-24T09:01:00;17.55;;;9.90;;
68989;SDS011;56046;47.270;11.368;2023-07-24T09:03:25;17.83;;;10.10;;
68989;SDS011;56046;47.270;11.368;2023-07-24T09:05:51;16.60;;;9.77;;
68989;SDS011;56046;47.270;11.368;2023-07-24T09:08:16;16.70;;;9.80;;
68989;SDS011;56046;47.270;11.368;2023-07-24T09:10:42;17.93;;;9.90;;
68989;SDS011;56046;47.270;11.368;2023-07-24T09:13:07;18.23;;;9.33;;
68989;SDS011;56046;47.270;11.368;2023-07-24T09:15:39;19.70;;;9.50;;
68989;SDS011;56046;47.270;11.368;2023-07-24T09:18:04;15.63;;;8.90;;
68989;SDS011;56046;47.270;11.368;2023-07-24T09:20:37;17.53;;;10.10;;
68989;SDS011;56046;47.270;11.368;2023-07-24T09:23:03;18.75;;;9.63;;
68989;SDS011;56046;47.270;11.368;2023-07-24T09:25:31;15.20;;;9.40;;
68989;SDS011;56046;47.270;11.368;2023-07-24T09:27:57;15.38;;;9.57;;
68989;SDS011;56046;47.270;11.368;2023-07-24T09:30:23;16.60;;;9.60;;
68989;SDS011;56046;47.270;11.368;2023-07-24T09:32:55;19.98;;;9.95;;
68989;SDS011;56046;47.270;11.368;2023-07-24T09:35:21;18.90;;;9.83;;
68989;SDS011;56046;47.270;11.368;2023-07-24T09:38:15;16.88;;;9.60;;
68989;SDS011;56046;47.270;11.368;2023-07-24T09:40:45;17.15;;;10.50;;
68989;SDS011;56046;47.270;11.368;2023-07-24T09:45:40;16.88;;;9.63;;
68989;SDS011;56046;47.270;11.368;2023-07-24T09:48:05;14.50;;;9.27;;
68989;SDS011;56046;47.270;11.368;2023-07-24T09:50:36;16.17;;;9.60;;
68989;SDS011;56046;47.270;11.368;2023-07-24T09:53:01;15.33;;;9.00;;
68989;SDS011;56046;47.270;11.368;2023-07-24T09:55:29;15.27;;;9.70;;
68989;SDS011;56046;47.270;11.368;2023-07-24T09:57:55;15.45;;;8.45;;
68989;SDS011;56046;47.270;11.368;2023-07-24T10:00:21;15.30;;;8.77;;
68989;SDS011;56046;47.270;11.368;2023-07-24T10:02:46;15.67;;;8.80;;
68989;SDS011;56046;47.270;11.368;2023-07-24T10:05:12;13.93;;;8.23;;
68989;SDS011;56046;47.270;11.368;2023-07-24T10:07:37;14.35;;;7.65;;
68989;SDS011;56046;47.270;11.368;2023-07-24T10:10:03;8.57;;;4.70;;
68989;SDS011;56046;47.270;11.368;2023-07-24T10:12:29;7.27;;;3.40;;
68989;SDS011;56046;47.270;11.368;2023-07-24T10:14:55;7.53;;;4.13;;
68989;SDS011;56046;47.270;11.368;2023-07-24T10:17:34;8.95;;;4.18;;
68989;SDS011;56046;47.270;11.368;2023-07-24T10:20:01;13.23;;;6.88;;
68989;SDS011;56046;47.270;11.368;2023-07-24T10:22:28;12.10;;;7.37;;
68989;SDS011;56046;47.270;11.368;2023-07-24T10:24:54;15.27;;;7.03;;
68989;SDS011;56046;47.270;11.368;2023-07-24T10:27:23;15.13;;;8.43;;
68989;SDS011;56046;47.270;11.368;2023-07-24T10:29:57;12.70;;;7.57;;
68989;SDS011;56046;47.270;11.368;2023-07-24T10:32:23;8.25;;;4.47;;
68989;SDS011;56046;47.270;11.368;2023-07-24T10:35:06;14.67;;;8.00;;
68989;SDS011;56046;47.270;11.368;2023-07-24T10:37:36;18.20;;;9.32;;
68989;SDS011;56046;47.270;11.368;2023-07-24T10:40:02;16.45;;;9.27;;
68989;SDS011;56046;47.270;11.368;2023-07-24T10:42:28;16.03;;;8.57;;
68989;SDS011;56046;47.270;11.368;2023-07-24T10:45:01;15.52;;;8.00;;
68989;SDS011;56046;47.270;11.368;2023-07-24T10:47:27;14.68;;;9.02;;
68989;SDS011;56046;47.270;11.368;2023-07-24T10:49:52;15.67;;;8.73;;
68989;SDS011;56046;47.270;11.368;2023-07-24T10:52:17;13.43;;;8.63;;
68989;SDS011;56046;47.270;11.368;2023-07-24T10:54:43;16.67;;;9.67;;
68989;SDS011;56046;47.270;11.368;2023-07-24T10:57:08;14.43;;;9.37;;
68989;SDS011;56046;47.270;11.368;2023-07-24T10:59:35;16.30;;;8.70;;
68989;SDS011;56046;47.270;11.368;2023-07-24T11:02:01;13.15;;;8.00;;
68989;SDS011;56046;47.270;11.368;2023-07-24T11:04:29;13.25;;;7.70;;
68989;SDS011;56046;47.270;11.368;2023-07-24T11:06:54;12.35;;;8.07;;
68989;SDS011;56046;47.270;11.368;2023-07-24T11:09:22;16.42;;;7.75;;
68989;SDS011;56046;47.270;11.368;2023-07-24T11:11:47;12.87;;;7.70;;
68989;SDS011;56046;47.270;11.368;2023-07-24T11:14:13;14.97;;;8.10;;
68989;SDS011;56046;47.270;11.368;2023-07-24T11:16:47;11.93;;;7.50;;
68989;SDS011;56046;47.270;11.368;2023-07-24T11:19:12;15.60;;;8.07;;
68989;SDS011;56046;47.270;11.368;2023-07-24T11:21:37;13.40;;;8.03;;
68989;SDS011;56046;47.270;11.368;2023-07-24T11:24:06;15.52;;;7.85;;
68989;SDS011;56046;47.270;11.368;2023-07-24T11:26:32;14.80;;;8.73;;
68989;SDS011;56046;47.270;11.368;2023-07-24T11:28:59;12.43;;;7.82;;
68989;SDS011;56046;47.270;11.368;2023-07-24T11:31:24;13.87;;;8.17;;
68989;SDS011;56046;47.270;11.368;2023-07-24T11:33:49;12.60;;;7.70;;
68989;SDS011;56046;47.270;11.368;2023-07-24T11:36:15;11.63;;;6.85;;
68989;SDS011;56046;47.270;11.368;2023-07-24T11:38:41;10.07;;;4.80;;
68989;SDS011;56046;47.270;11.368;2023-07-24T11:41:08;9.02;;;4.78;;
68989;SDS011;56046;47.270;11.368;2023-07-24T11:43:33;9.48;;;4.82;;
68989;SDS011;56046;47.270;11.368;2023-07-24T11:45:58;10.80;;;4.83;;
68989;SDS011;56046;47.270;11.368;2023-07-24T11:48:24;8.80;;;4.40;;
68989;SDS011;56046;47.270;11.368;2023-07-24T11:50:50;10.25;;;5.15;;
68989;SDS011;56046;47.270;11.368;2023-07-24T11:53:34;8.32;;;4.50;;
68989;SDS011;56046;47.270;11.368;2023-07-24T11:55:59;8.37;;;4.37;;
68989;SDS011;56046;47.270;11.368;2023-07-24T11:58:28;8.32;;;4.70;;
68989;SDS011;56046;47.270;11.368;2023-07-24T12:00:53;10.98;;;5.22;;
68989;SDS011;56046;47.270;11.368;2023-07-24T12:03:19;9.57;;;5.23;;
68989;SDS011;56046;47.270;11.368;2023-07-24T12:05:45;12.90;;;6.60;;
68989;SDS011;56046;47.270;11.368;2023-07-24T12:08:11;15.97;;;8.43;;
68989;SDS011;56046;47.270;11.368;2023-07-24T12:10:39;11.70;;;6.85;;
68989;SDS011;56046;47.270;11.368;2023-07-24T12:13:04;18.23;;;7.97;;
68989;SDS011;56046;47.270;11.368;2023-07-24T12:15:30;14.20;;;7.57;;
68989;SDS011;56046;47.270;11.368;2023-07-24T12:17:56;11.35;;;6.30;;
68989;SDS011;56046;47.270;11.368;2023-07-24T12:20:22;10.87;;;6.53;;
68989;SDS011;56046;47.270;11.368;2023-07-24T12:22:47;12.27;;;7.60;;
68989;SDS011;56046;47.270;11.368;2023-07-24T12:25:12;11.20;;;6.00;;
68989;SDS011;56046;47.270;11.368;2023-07-24T12:27:37;11.27;;;6.50;;
68989;SDS011;56046;47.270;11.368;2023-07-24T12:30:04;11.93;;;6.30;;
68989;SDS011;56046;47.270;11.368;2023-07-24T12:32:31;12.93;;;6.70;;
68989;SDS011;56046;47.270;11.368;2023-07-24T12:34:56;10.38;;;6.82;;
68989;SDS011;56046;47.270;11.368;2023-07-24T12:37:21;11.20;;;6.60;;
68989;SDS011;56046;47.270;11.368;2023-07-24T12:39:47;12.30;;;7.50;;
68989;SDS011;56046;47.270;11.368;2023-07-24T12:42:13;10.95;;;6.72;;
68989;SDS011;56046;47.270;11.368;2023-07-24T12:44:38;11.60;;;7.03;;
68989;SDS011;56046;47.270;11.368;2023-07-24T12:47:03;11.90;;;6.70;;
68989;SDS011;56046;47.270;11.368;2023-07-24T12:49:29;10.97;;;6.13;;
68989;SDS011;56046;47.270;11.368;2023-07-24T12:51:54;11.23;;;6.47;;
68989;SDS011;56046;47.270;11.368;2023-07-24T12:54:19;12.83;;;6.80;;
68989;SDS011;56046;47.270;11.368;2023-07-24T12:56:46;12.47;;;6.17;;
68989;SDS011;56046;47.270;11.368;2023-07-24T12:59:12;10.23;;;5.68;;
68989;SDS011;56046;47.270;11.368;2023-07-24T13:01:37;10.87;;;6.77;;
68989;SDS011;56046;47.270;11.368;2023-07-24T13:04:02;11.73;;;6.53;;
68989;SDS011;56046;47.270;11.368;2023-07-24T13:06:28;12.33;;;6.80;;
68989;SDS011;56046;47.270;11.368;2023-07-24T13:08:53;12.10;;;6.73;;
68989;SDS011;56046;47.270;11.368;2023-07-24T13:11:18;14.73;;;6.87;;
68989;SDS011;56046;47.270;11.368;2023-07-24T13:13:43;13.33;;;6.83;;
68989;SDS011;56046;47.270;11.368;2023-07-24T13:16:09;11.65;;;6.20;;
68989;SDS011;56046;47.270;11.368;2023-07-24T13:18:34;12.43;;;6.50;;
68989;SDS011;56046;47.270;11.368;2023-07-24T13:20:59;10.43;;;5.97;;
68989;SDS011;56046;47.270;11.368;2023-07-24T13:23:25;11.70;;;6.20;;
68989;SDS011;56046;47.270;11.368;2023-07-24T13:25:51;14.20;;;6.27;;
68989;SDS011;56046;47.270;11.368;2023-07-24T13:28:16;10.13;;;5.70;;
68989;SDS011;56046;47.270;11.368;2023-07-24T13:30:42;10.73;;;5.70;;
68989;SDS011;56046;47.270;11.368;2023-07-24T13:33:07;10.00;;;6.27;;
68989;SDS011;56046;47.270;11.368;2023-07-24T13:35:32;9.50;;;5.00;;
68989;SDS011;56046;47.270;11.368;2023-07-24T13:37:57;11.73;;;6.00;;
68989;SDS011;56046;47.270;11.368;2023-07-24T13:40:23;13.80;;;6.20;;
68989;SDS011;56046;47.270;11.368;2023-07-24T13:42:48;10.93;;;6.17;;
68989;SDS011;56046;47.270;11.368;2023-07-24T13:45:14;15.23;;;6.00;;
68989;SDS011;56046;47.270;11.368;2023-07-24T13:47:39;13.37;;;5.90;;
68989;SDS011;56046;47.270;11.368;2023-07-24T13:50:04;8.47;;;4.20;;
68989;SDS011;56046;47.270;11.368;2023-07-24T13:52:30;8.65;;;3.78;;
68989;SDS011;56046;47.270;11.368;2023-07-24T13:54:55;7.53;;;4.20;;
68989;SDS011;56046;47.270;11.368;2023-07-24T13:57:21;8.13;;;3.70;;
68989;SDS011;56046;47.270;11.368;2023-07-24T13:59:47;7.85;;;3.65;;
68989;SDS011;56046;47.270;11.368;2023-07-24T14:02:12;8.27;;;3.72;;
68989;SDS011;56046;47.270;11.368;2023-07-24T14:04:38;8.17;;;3.43;;
68989;SDS011;56046;47.270;11.368;2023-07-24T14:07:03;7.33;;;4.10;;
68989;SDS011;56046;47.270;11.368;2023-07-24T14:09:29;7.33;;;3.70;;
68989;SDS011;56046;47.270;11.368;2023-07-24T14:11:56;7.28;;;3.58;;
68989;SDS011;56046;47.270;11.368;2023-07-24T14:14:21;6.67;;;3.10;;
68989;SDS011;56046;47.270;11.368;2023-07-24T14:16:48;7.82;;;3.47;;
68989;SDS011;56046;47.270;11.368;2023-07-24T14:19:13;6.83;;;3.37;;
68989;SDS011;56046;47.270;11.368;2023-07-24T14:21:40;6.38;;;3.00;;